Time;durP1;ratioP1;P1;durP2;ratioP2;P2;SDS_P1;SDS_P2;PMS_P1;PMS_P2;Temp;Humidity;BMP_temperature;BMP_pressure;BME280_temperature;BME280_humidity;BME280_pressure;Samples;Min_cycle;Max_cycle;Signal;HPM_P1;HPM_P2
2022/10/17 00:00:58;;;;;;;28.63;19.35;;;;;;;7.10;85.27;102167.34;5068815;28;20052;-74
2022/10/17 00:03:23;;;;;;;28.98;17.60;;;;;;;5.47;84.50;101865.69;5068661;28;20119;-74
2022/10/17 00:05:49;;;;;;;26.83;19.42;;;;;;;7.27;84.25;102191.56;5067231;28;20376;-74
2022/10/17 00:08:16;;;;;;;43.05;20.17;;;;;;;6.52;84.32;102077.03;5066642;28;20037;-75
2022/10/17 00:10:41;;;;;;;31.58;20.48;;;;;;;7.24;84.47;102205.38;5048401;28;20484;-76
2022/10/17 00:13:08;;;;;;;26.08;17.85;;;;;;;7.25;84.59;102203.66;5066783;28;20036;-76
2022/10/17 00:15:33;;;;;;;19.00;12.30;;;;;;;7.12;84.87;102203.13;5064195;28;20024;-76
2022/10/17 00:18:00;;;;;;;22.10;13.65;;;;;;;7.13;84.77;102184.00;5029657;28;20029;-74
2022/10/17 00:20:25;;;;;;;22.90;12.50;;;;;;;7.28;84.90;102209.91;5043469;28;20110;-76
2022/10/17 00:22:51;;;;;;;20.80;13.20;;;;;;;7.60;83.94;102212.94;5046387;28;20067;-74
2022/10/17 00:25:17;;;;;;;23.08;14.85;;;;;;;7.59;86.04;102203.34;5046769;28;20376;-75
2022/10/17 00:27:44;;;;;;;26.40;18.45;;;;;;;6.46;86.98;102032.41;5046104;28;20045;-75
2022/10/17 00:30:14;;;;;;;26.10;19.63;;;;;;;7.36;87.47;102181.50;5046966;28;20040;-75
2022/10/17 00:32:39;;;;;;;29.30;18.73;;;;;;;7.49;86.81;102214.22;5065816;28;20809;-75
2022/10/17 00:35:06;;;;;;;25.42;17.45;;;;;;;6.78;87.08;102092.91;5065848;28;20041;-74
2022/10/17 00:37:32;;;;;;;24.02;14.40;;;;;;;6.79;88.42;102105.09;5066292;28;20066;-74
2022/10/17 00:39:58;;;;;;;21.05;15.60;;;;;;;6.61;88.41;102077.44;5065902;28;20127;-75
2022/10/17 00:42:24;;;;;;;24.83;18.15;;;;;;;7.22;88.48;102201.78;5074472;28;20630;-76
2022/10/17 00:44:50;;;;;;;33.42;20.77;;;;;;;7.18;89.04;102224.25;5082139;28;20108;-73
2022/10/17 00:47:19;;;;;;;29.38;19.27;;;;;;;6.46;88.44;102061.09;5066907;28;20044;-75
2022/10/17 00:49:46;;;;;;;21.58;15.55;;;;;;;6.51;86.40;102062.22;5066442;28;20065;-76
2022/10/17 00:52:16;;;;;;;31.23;18.30;;;;;;;6.60;87.10;102072.13;5065933;28;20515;-76
2022/10/17 00:54:46;;;;;;;20.35;14.77;;;;;;;7.27;88.44;102221.16;5051488;28;20340;-75
2022/10/17 00:57:14;;;;;;;26.45;13.75;;;;;;;6.67;88.92;102108.09;5072397;28;20554;-74
2022/10/17 00:59:42;;;;;;;19.05;14.13;;;;;;;6.40;88.56;102074.78;5090185;28;20085;-74
2022/10/17 01:02:10;;;;;;;22.98;16.77;;;;;;;7.13;88.69;102206.63;5076639;28;20136;-74
2022/10/17 01:04:41;;;;;;;22.90;13.82;;;;;;;7.21;87.79;102215.69;5082518;28;20687;-75
2022/10/17 01:07:07;;;;;;;18.08;12.48;;;;;;;6.28;85.53;102100.31;5069893;28;20768;-75
2022/10/17 01:09:34;;;;;;;18.70;12.43;;;;;;;7.03;85.33;102215.78;5069734;28;20024;-74
2022/10/17 01:12:18;;;;;;;28.67;15.43;;;;;;;7.07;84.69;102217.72;5072162;28;20032;-75
2022/10/17 01:15:06;;;;;;;31.60;14.60;;;;;;;7.30;84.27;102223.88;5070664;28;20051;-74
2022/10/17 01:17:52;;;;;;;15.20;9.98;;;;;;;7.16;82.77;102196.31;5058870;28;20059;-75
2022/10/17 01:20:41;;;;;;;27.52;12.50;;;;;;;7.17;85.12;102217.25;5087269;28;20640;-74
2022/10/17 01:23:34;;;;;;;19.23;11.60;;;;;;;7.27;84.25;102222.88;5089784;28;20040;-74
2022/10/17 01:26:12;;;;;;;21.67;11.63;;;;;;;7.29;82.71;102227.34;5089449;28;20036;-74
2022/10/17 01:28:58;;;;;;;21.77;13.82;;;;;;;7.27;85.84;102221.16;5069488;28;20051;-74
2022/10/17 01:31:43;;;;;;;23.42;10.73;;;;;;;7.12;85.88;102224.00;5069270;28;20464;-74
2022/10/17 01:34:17;;;;;;;19.13;14.65;;;;;;;6.86;84.23;102199.38;5053530;28;20498;-76
2022/10/17 01:36:49;;;;;;;23.00;12.25;;;;;;;6.22;86.32;102085.28;5051365;28;20037;-74
2022/10/17 01:39:45;;;;;;;21.17;12.18;;;;;;;7.01;87.54;102224.38;5061465;28;20029;-75
2022/10/17 01:42:40;;;;;;;18.63;12.80;;;;;;;6.84;88.90;102232.34;5073815;28;20071;-75
2022/10/17 01:45:17;;;;;;;21.05;13.73;;;;;;;5.97;88.52;102061.53;5087525;28;20558;-74
2022/10/17 01:47:45;;;;;;;24.17;15.32;;;;;;;6.95;87.97;102220.66;5064792;28;20041;-74
2022/10/17 01:50:17;;;;;;;16.80;11.05;;;;;;;6.12;85.97;102106.53;5067140;28;20051;-75
2022/10/17 01:52:54;;;;;;;16.52;10.95;;;;;;;6.87;86.46;102224.66;5067176;28;20036;-77
2022/10/17 01:55:24;;;;;;;15.32;11.07;;;;;;;7.00;84.81;102209.50;5029128;28;20052;-75
2022/10/17 01:57:54;;;;;;;16.73;11.15;;;;;;;6.10;87.42;102085.59;5064175;28;20044;-74
2022/10/17 02:00:26;;;;;;;21.00;13.50;;;;;;;6.50;87.95;102178.66;5080071;28;20428;-74
2022/10/17 02:02:57;;;;;;;32.88;11.45;;;;;;;6.15;88.48;102118.81;5069531;28;20113;-75
2022/10/17 02:05:28;;;;;;;20.58;11.90;;;;;;;6.79;88.65;102233.88;5068241;28;20041;-75
2022/10/17 02:07:53;;;;;;;26.17;12.43;;;;;;;6.68;89.15;102227.25;5068779;28;20041;-74
2022/10/17 02:10:32;;;;;;;21.38;12.10;;;;;;;6.75;89.10;102238.03;5068815;28;20044;-74
2022/10/17 02:13:18;;;;;;;18.50;12.13;;;;;;;6.84;88.96;102237.56;5070910;28;20072;-75
2022/10/17 02:16:22;;;;;;;19.60;12.32;;;;;;;6.72;89.27;102239.63;5085516;28;20036;-74
2022/10/17 02:19:09;;;;;;;17.73;10.70;;;;;;;6.62;90.14;102243.50;5004339;28;20042;-74
2022/10/17 02:22:03;;;;;;;18.80;11.02;;;;;;;6.76;89.55;102236.31;5064249;28;20050;-75
2022/10/17 02:24:34;;;;;;;;;;;;;;;6.54;89.29;102242.28;5069047;28;20108;-75
2022/10/17 02:27:18;;;;;;;14.20;10.45;;;;;;;6.67;88.83;102244.63;5068788;28;20354;-74
2022/10/17 02:29:48;;;;;;;;;;;;;;;6.74;89.45;102244.09;5082061;28;20051;-74
2022/10/17 02:32:23;;;;;;;16.52;11.27;;;;;;;6.50;89.37;102203.84;5070282;28;20001;-75
2022/10/17 02:34:53;;;;;;;16.23;13.52;;;;;;;6.70;89.35;102238.66;5081978;28;20040;-74
2022/10/17 02:37:23;;;;;;;19.33;12.63;;;;;;;6.76;90.01;102246.75;5068467;28;20064;-74
2022/10/17 02:39:50;;;;;;;21.20;12.35;;;;;;;6.72;90.40;102243.13;5071939;28;20036;-74
2022/10/17 02:42:17;;;;;;;18.58;14.25;;;;;;;6.75;89.95;102238.03;5089517;28;20040;-74
2022/10/17 02:44:45;;;;;;;16.30;10.70;;;;;;;6.75;90.01;102247.59;5088314;28;20118;-75
2022/10/17 02:47:20;;;;;;;17.35;11.70;;;;;;;6.50;90.54;102207.34;5070512;28;20040;-74
2022/10/17 02:49:51;;;;;;;25.25;14.10;;;;;;;6.74;90.75;102257.13;5073309;28;20033;-74
2022/10/17 02:52:29;;;;;;;17.70;12.20;;;;;;;6.72;91.05;102260.50;5064504;28;20036;-75
2022/10/17 02:55:05;;;;;;;21.30;12.65;;;;;;;6.62;91.78;102263.50;5076276;28;20059;-75
2022/10/17 02:57:37;;;;;;;22.50;13.85;;;;;;;5.71;91.80;102103.78;5060089;28;20118;-72
2022/10/17 03:00:12;;;;;;;20.65;13.40;;;;;;;5.91;91.61;102133.34;5088702;28;20020;-77
2022/10/17 03:02:47;;;;;;;22.92;14.40;;;;;;;6.60;92.03;102260.81;5087969;28;20067;-75
2022/10/17 03:05:23;;;;;;;22.65;13.20;;;;;;;6.51;92.36;102242.16;5084408;28;20144;-74
2022/10/17 03:07:49;;;;;;;47.05;15.63;;;;;;;6.52;92.27;102244.81;5084017;28;20044;-74
2022/10/17 03:10:15;;;;;;;22.15;13.48;;;;;;;6.53;92.36;102246.63;5084619;28;20081;-74
2022/10/17 03:12:41;;;;;;;28.55;14.93;;;;;;;6.57;92.62;102241.53;5087504;28;20032;-75
2022/10/17 03:15:07;;;;;;;21.73;14.43;;;;;;;6.55;92.57;102251.88;5088398;28;20593;-76
2022/10/17 03:17:34;;;;;;;23.05;15.45;;;;;;;5.78;92.99;102117.94;5053410;28;20088;-75
2022/10/17 03:19:59;;;;;;;22.05;13.93;;;;;;;6.21;92.68;102197.31;5050052;28;20045;-76
2022/10/17 03:22:25;;;;;;;19.85;13.02;;;;;;;5.86;93.32;102141.78;5068707;28;20503;-76
2022/10/17 03:24:50;;;;;;;27.73;16.55;;;;;;;6.52;93.84;102272.59;5069606;28;20154;-75
2022/10/17 03:27:15;;;;;;;27.48;17.15;;;;;;;6.44;94.38;102282.69;5057837;28;20045;-75
2022/10/17 03:29:41;;;;;;;20.05;13.30;;;;;;;6.30;94.55;102260.28;5083251;28;20055;-73
2022/10/17 03:32:06;;;;;;;21.00;14.35;;;;;;;6.61;93.72;102283.47;5069058;28;20067;-75
2022/10/17 03:34:32;;;;;;;25.25;16.38;;;;;;;6.51;94.06;102282.16;5083472;28;20028;-75
2022/10/17 03:36:58;;;;;;;21.65;13.40;;;;;;;6.32;94.23;102249.13;5067378;28;20392;-75
2022/10/17 03:39:23;;;;;;;29.70;15.45;;;;;;;6.53;93.61;102300.47;5047587;28;20471;-75
2022/10/17 03:41:49;;;;;;;22.23;15.00;;;;;;;6.59;93.52;102286.84;5067631;28;20055;-73
2022/10/17 03:44:14;;;;;;;29.15;15.23;;;;;;;5.97;93.47;102166.66;5067150;28;20040;-75
2022/10/17 03:46:40;;;;;;;19.65;15.40;;;;;;;5.83;93.81;102149.44;5063773;28;20071;-74
2022/10/17 03:49:05;;;;;;;22.00;16.15;;;;;;;5.69;94.17;102126.25;5066945;28;20490;-74
2022/10/17 03:51:33;;;;;;;23.92;14.50;;;;;;;5.80;93.81;102144.09;5067174;28;20043;-75
2022/10/17 03:53:58;;;;;;;26.20;16.08;;;;;;;5.76;93.53;102135.25;5073076;28;20038;-76
2022/10/17 03:56:24;;;;;;;21.05;15.45;;;;;;;5.82;93.58;102166.78;5049659;28;20040;-74
2022/10/17 03:58:50;;;;;;;22.70;16.08;;;;;;;5.89;93.37;102153.22;5046565;28;20060;-74
2022/10/17 04:01:17;;;;;;;24.77;16.45;;;;;;;5.95;93.99;102186.53;5046648;28;20049;-72
2022/10/17 04:03:43;;;;;;;21.88;15.48;;;;;;;6.58;93.78;102303.28;5046980;28;20101;-74
2022/10/17 04:06:11;;;;;;;22.42;16.15;;;;;;;6.44;93.80;102272.25;5047283;28;20447;-74
2022/10/17 04:08:37;;;;;;;21.60;16.45;;;;;;;6.42;94.15;102273.91;5028598;28;20041;-73
2022/10/17 04:11:05;;;;;;;20.27;14.27;;;;;;;5.72;94.24;102162.84;5077657;28;20048;-73
2022/10/17 04:13:31;;;;;;;24.48;16.33;;;;;;;5.79;94.09;102160.56;5092503;28;20051;-74
2022/10/17 04:16:01;;;;;;;29.70;18.58;;;;;;;6.41;94.25;102282.53;5079671;28;20084;-74
2022/10/17 04:18:27;;;;;;;40.13;18.23;;;;;;;5.64;95.08;102192.84;5046605;28;20079;-74
2022/10/17 04:20:53;;;;;;;22.95;15.20;;;;;;;5.18;97.02;102182.75;5044535;28;20119;-74
2022/10/17 04:23:22;;;;;;;32.75;17.73;;;;;;;6.32;95.84;102305.56;5046576;28;20124;-75
2022/10/17 04:25:48;;;;;;;29.77;18.30;;;;;;;5.76;94.80;102178.63;5058819;28;20057;-72
2022/10/17 04:28:13;;;;;;;27.27;20.08;;;;;;;6.34;94.41;102280.44;5067369;28;20040;-74
2022/10/17 04:30:39;;;;;;;39.72;16.52;;;;;;;6.40;94.79;102293.78;5069888;28;20054;-74
2022/10/17 04:33:05;;;;;;;24.52;17.48;;;;;;;5.78;94.03;102177.88;5052406;28;20082;-76
2022/10/17 04:35:30;;;;;;;25.73;18.50;;;;;;;6.51;95.02;102328.22;5069753;28;20051;-76
2022/10/17 04:37:55;;;;;;;29.42;18.08;;;;;;;5.53;94.95;102128.94;5067705;28;20045;-74
2022/10/17 04:40:21;;;;;;;23.42;17.65;;;;;;;6.42;95.50;102323.44;5069372;28;20150;-74
2022/10/17 04:42:47;;;;;;;29.00;18.90;;;;;;;6.26;95.70;102285.31;5052193;28;20040;-75
2022/10/17 04:45:13;;;;;;;34.83;20.08;;;;;;;5.64;96.25;102187.66;5089885;28;20131;-74
2022/10/17 04:47:38;;;;;;;27.15;18.95;;;;;;;6.40;96.48;102318.97;5069504;28;20040;-74
2022/10/17 04:50:05;;;;;;;24.98;18.58;;;;;;;5.64;95.73;102172.03;5057525;28;20501;-74
2022/10/17 04:52:31;;;;;;;32.58;20.95;;;;;;;6.48;96.08;102322.81;5082379;28;20057;-74
2022/10/17 04:54:56;;;;;;;26.75;18.58;;;;;;;6.29;95.93;102295.00;5087445;28;20075;-74
2022/10/17 04:57:23;;;;;;;28.67;17.65;;;;;;;6.52;96.07;102327.38;5053000;28;20039;-75
2022/10/17 04:59:49;;;;;;;45.03;22.63;;;;;;;6.54;94.45;102326.63;5086325;28;20111;-74
2022/10/17 05:02:15;;;;;;;28.55;18.75;;;;;;;6.62;94.04;102333.91;5089001;28;20143;-75
2022/10/17 05:04:40;;;;;;;30.40;18.77;;;;;;;6.59;94.33;102349.44;5089735;28;20807;-75
2022/10/17 05:07:06;;;;;;;40.75;20.55;;;;;;;6.10;94.13;102251.50;5089685;28;20510;-75
2022/10/17 05:09:31;;;;;;;28.25;19.00;;;;;;;5.68;93.68;102186.94;5089235;28;20078;-76
2022/10/17 05:11:56;;;;;;;38.97;20.13;;;;;;;6.53;94.13;102339.59;5069601;28;20085;-77
2022/10/17 05:14:22;;;;;;;42.45;21.20;;;;;;;6.55;94.72;102327.50;5076557;28;20048;-74
2022/10/17 05:16:48;;;;;;;41.78;20.55;;;;;;;6.10;93.25;102228.94;5060037;28;20507;-72
2022/10/17 05:19:13;;;;;;;35.05;19.27;;;;;;;6.11;93.62;102233.34;5049347;28;20178;-74
2022/10/17 05:21:39;;;;;;;27.27;18.80;;;;;;;5.92;93.66;102212.38;5068881;28;20037;-75
2022/10/17 05:24:06;;;;;;;31.73;20.25;;;;;;;6.79;93.31;102358.19;5069638;28;20028;-75
2022/10/17 05:26:31;;;;;;;30.77;19.55;;;;;;;6.76;93.20;102338.94;5066458;28;20045;-75
2022/10/17 05:29:01;;;;;;;28.85;18.70;;;;;;;6.49;93.80;102291.63;5065215;28;20506;-77
2022/10/17 05:31:28;;;;;;;31.98;19.15;;;;;;;6.05;93.70;102219.13;5061908;28;20159;-75
2022/10/17 05:33:53;;;;;;;42.33;20.45;;;;;;;6.89;93.58;102355.19;5062987;28;20087;-76
2022/10/17 05:36:19;;;;;;;39.33;18.77;;;;;;;5.95;94.46;102277.72;5062767;28;20092;-76
2022/10/17 05:38:49;;;;;;;33.67;18.95;;;;;;;6.51;94.38;102378.66;5060325;28;20045;-76
2022/10/17 05:41:14;;;;;;;29.02;19.63;;;;;;;6.47;95.08;102379.31;5050025;28;20040;-73
2022/10/17 05:43:40;;;;;;;41.63;19.08;;;;;;;6.48;94.53;102367.16;5063212;28;20106;-73
2022/10/17 05:46:05;;;;;;;23.60;18.85;;;;;;;6.22;93.05;102266.84;5057785;28;20041;-75
2022/10/17 05:48:32;;;;;;;27.00;19.65;;;;;;;7.22;91.17;102401.94;5053692;28;20036;-76
2022/10/17 05:51:06;;;;;;;32.50;19.95;;;;;;;7.28;90.71;102391.75;5041945;28;20028;-75
2022/10/17 05:53:34;;;;;;;58.85;23.52;;;;;;;7.18;90.28;102386.13;5051676;28;20049;-74
2022/10/17 05:56:04;;;;;;;33.15;18.50;;;;;;;7.04;89.17;102323.69;5058394;28;20041;-77
2022/10/17 05:58:30;;;;;;;22.17;16.25;;;;;;;6.82;88.29;102262.69;5053373;28;20056;-76
2022/10/17 06:00:58;;;;;;;34.75;19.77;;;;;;;7.45;88.77;102410.81;5060614;28;20052;-76
2022/10/17 06:03:23;;;;;;;28.80;19.08;;;;;;;7.64;88.09;102412.53;5065962;28;20047;-76
2022/10/17 06:05:48;;;;;;;33.63;21.55;;;;;;;7.59;86.87;102375.75;5064051;28;20028;-75
2022/10/17 06:08:14;;;;;;;23.88;18.00;;;;;;;7.08;86.33;102286.47;5065790;28;20082;-75
2022/10/17 06:10:39;;;;;;;28.02;16.02;;;;;;;7.35;85.45;102355.56;5067546;28;20047;-76
2022/10/17 06:13:06;;;;;;;30.50;17.10;;;;;;;6.94;85.63;102270.19;5067145;28;20043;-75
2022/10/17 06:15:31;;;;;;;24.15;16.17;;;;;;;7.26;85.39;102316.00;5067474;28;20051;-76
2022/10/17 06:17:57;;;;;;;28.67;16.00;;;;;;;8.15;84.37;102429.59;5032403;28;20461;-75
2022/10/17 06:20:22;;;;;;;30.42;17.02;;;;;;;8.33;83.36;102442.53;5046436;28;20052;-75
2022/10/17 06:22:48;;;;;;;51.95;19.35;;;;;;;6.89;83.08;102169.94;5047820;28;20100;-75
2022/10/17 06:25:13;;;;;;;33.28;18.60;;;;;;;8.28;83.76;102422.25;5047693;28;20045;-75
2022/10/17 06:27:39;;;;;;;29.65;18.35;;;;;;;8.56;83.22;102440.00;5047687;28;20025;-75
2022/10/17 06:30:05;;;;;;;30.55;20.13;;;;;;;8.68;80.95;102434.38;5064884;28;20040;-75
2022/10/17 06:32:30;;;;;;;29.75;19.35;;;;;;;8.71;81.39;102445.88;5087923;28;20051;-75
2022/10/17 06:34:56;;;;;;;27.13;15.65;;;;;;;8.74;80.05;102442.50;5080544;28;20429;-75
2022/10/17 06:37:21;;;;;;;32.70;17.90;;;;;;;8.32;78.04;102330.00;5066277;28;20041;-75
2022/10/17 06:39:46;;;;;;;30.20;12.63;;;;;;;8.83;78.78;102440.25;5067265;28;20048;-75
2022/10/17 06:42:12;;;;;;;21.30;13.93;;;;;;;8.70;78.68;102423.13;5068068;28;20109;-75
2022/10/17 06:44:39;;;;;;;23.83;14.52;;;;;;;8.25;77.20;102307.94;5063013;28;20048;-75
2022/10/17 06:47:04;;;;;;;21.50;13.88;;;;;;;8.43;76.12;102311.31;5064244;28;20481;-76
2022/10/17 06:49:31;;;;;;;23.48;14.07;;;;;;;8.96;75.38;102416.31;5066149;28;20051;-76
2022/10/17 06:51:56;;;;;;;22.85;13.75;;;;;;;9.23;73.71;102453.16;5067144;28;20048;-75
2022/10/17 06:54:28;;;;;;;18.83;12.57;;;;;;;8.38;73.37;102317.16;5063715;28;20024;-75
2022/10/17 06:56:54;;;;;;;17.40;12.18;;;;;;;9.09;71.92;102409.84;5046307;28;20032;-76
2022/10/17 06:59:20;;;;;;;27.20;11.93;;;;;;;8.96;71.10;102360.44;5049271;28;20036;-75
2022/10/17 07:01:46;;;;;;;17.33;12.45;;;;;;;9.53;71.66;102452.53;5065321;28;20559;-76
2022/10/17 07:04:11;;;;;;;34.38;13.68;;;;;;;8.98;70.98;102340.44;5066934;28;20807;-75
2022/10/17 07:06:37;;;;;;;26.45;12.85;;;;;;;9.57;70.84;102432.56;5067364;28;20483;-77
2022/10/17 07:09:05;;;;;;;33.70;13.55;;;;;;;9.61;70.80;102442.34;5068014;28;20067;-75
2022/10/17 07:11:32;;;;;;;23.20;13.00;;;;;;;9.93;70.01;102448.75;5065278;28;20044;-74
2022/10/17 07:13:57;;;;;;;21.75;13.20;;;;;;;9.83;70.48;102450.16;5066616;28;20479;-76
2022/10/17 07:16:23;;;;;;;30.20;13.57;;;;;;;9.73;69.02;102425.31;5060805;28;20037;-75
2022/10/17 07:18:49;;;;;;;26.58;12.73;;;;;;;9.98;69.94;102447.16;5045175;28;20528;-74
2022/10/17 07:21:15;;;;;;;29.00;11.63;;;;;;;10.07;69.31;102462.34;5054511;28;20036;-76
2022/10/17 07:23:41;;;;;;;23.95;13.98;;;;;;;9.34;70.01;102329.53;5065303;28;20071;-75
2022/10/17 07:26:10;;;;;;;17.17;10.25;;;;;;;10.02;67.71;102454.31;5047216;28;20507;-77
2022/10/17 07:28:38;;;;;;;17.98;12.10;;;;;;;9.57;66.79;102341.72;5066268;28;20045;-76
2022/10/17 07:31:06;;;;;;;16.17;10.80;;;;;;;10.38;66.80;102461.69;5064466;28;20094;-75
2022/10/17 07:33:31;;;;;;;20.33;10.80;;;;;;;10.37;65.43;102449.41;5065223;28;20333;-75
2022/10/17 07:35:59;;;;;;;39.42;11.00;;;;;;;10.52;65.43;102468.28;5064627;28;20040;-75
2022/10/17 07:38:24;;;;;;;16.92;11.27;;;;;;;9.82;64.05;102319.88;5068029;28;20092;-76
2022/10/17 07:40:58;;;;;;;25.20;11.02;;;;;;;10.84;63.34;102460.59;5065586;28;20127;-76
2022/10/17 07:43:24;;;;;;;14.85;10.55;;;;;;;10.72;62.85;102460.19;5082602;28;20044;-77
2022/10/17 07:45:50;;;;;;;20.27;9.95;;;;;;;10.83;62.89;102464.03;5084482;28;20753;-77
2022/10/17 07:48:16;;;;;;;16.23;9.20;;;;;;;10.89;61.10;102453.75;5047381;28;21047;-77
2022/10/17 07:50:42;;;;;;;22.33;8.65;;;;;;;11.03;61.34;102450.63;5062051;28;20028;-77
2022/10/17 07:53:07;;;;;;;22.33;11.38;;;;;;;10.54;61.36;102335.38;5065173;28;20053;-76
2022/10/17 07:55:33;;;;;;;17.58;8.40;;;;;;;11.31;60.29;102469.06;5054921;28;20052;-76
2022/10/17 07:58:01;;;;;;;15.60;9.38;;;;;;;10.56;60.51;102331.06;5065962;28;20037;-75
2022/10/17 08:00:27;;;;;;;21.30;9.55;;;;;;;11.09;59.82;102396.56;5065996;28;20055;-75
2022/10/17 08:02:52;;;;;;;33.60;10.63;;;;;;;10.83;60.63;102353.75;5065882;28;20464;-76
2022/10/17 08:05:17;;;;;;;11.05;7.18;;;;;;;10.96;59.56;102374.28;5071316;28;20049;-75
2022/10/17 08:07:43;;;;;;;12.52;7.55;;;;;;;11.44;57.73;102435.25;5066338;28;20805;-76
2022/10/17 08:10:11;;;;;;;14.95;8.45;;;;;;;11.75;57.42;102468.56;5047839;28;20860;-77
2022/10/17 08:12:37;;;;;;;13.88;8.85;;;;;;;11.24;57.34;102363.69;5065981;28;20039;-75
2022/10/17 08:15:04;;;;;;;23.02;10.35;;;;;;;11.64;57.94;102446.34;5066584;28;20463;-76
2022/10/17 08:17:30;;;;;;;15.70;9.02;;;;;;;11.29;56.42;102341.09;5050865;28;20157;-75
2022/10/17 08:19:55;;;;;;;20.90;9.63;;;;;;;11.92;56.50;102445.41;5052834;28;20449;-75
2022/10/17 08:22:21;;;;;;;21.35;8.52;;;;;;;11.66;55.96;102374.53;5066041;28;20044;-75
2022/10/17 08:24:47;;;;;;;22.23;9.93;;;;;;;12.05;55.56;102436.97;5066221;28;20125;-75
2022/10/17 08:27:13;;;;;;;17.55;8.23;;;;;;;12.39;54.51;102456.28;5071192;28;20032;-75
2022/10/17 08:29:39;;;;;;;13.02;7.88;;;;;;;11.88;53.60;102367.25;5085971;28;20131;-75
2022/10/17 08:32:06;;;;;;;22.17;8.50;;;;;;;11.78;54.17;102326.63;5086107;28;20068;-76
2022/10/17 08:34:31;;;;;;;17.10;9.25;;;;;;;12.62;53.24;102455.13;5071602;28;20098;-74
2022/10/17 08:36:57;;;;;;;21.65;8.45;;;;;;;12.69;52.47;102453.53;5065932;28;20460;-76
2022/10/17 08:39:22;;;;;;;13.32;8.20;;;;;;;12.41;53.71;102421.25;5066205;28;20047;-75
2022/10/17 08:42:03;;;;;;;37.47;11.27;;;;;;;12.67;54.24;102450.84;5066450;28;20832;-75
2022/10/17 08:45:10;;;;;;;19.88;8.32;;;;;;;12.79;53.82;102452.00;5065790;28;20087;-77
2022/10/17 08:47:50;;;;;;;13.75;7.00;;;;;;;12.00;53.96;102301.78;5064185;28;20052;-76
2022/10/17 08:50:19;;;;;;;20.10;8.00;;;;;;;12.90;53.62;102455.78;5049008;28;20078;-75
2022/10/17 08:52:52;;;;;;;13.48;6.47;;;;;;;12.76;52.50;102413.31;5076623;28;20532;-77
2022/10/17 08:55:41;;;;;;;15.07;7.40;;;;;;;12.97;53.43;102459.41;5047807;28;20057;-76
2022/10/17 08:58:13;;;;;;;10.40;6.43;;;;;;;13.21;51.35;102448.56;5065706;28;20170;-75
2022/10/17 09:00:45;;;;;;;15.38;6.07;;;;;;;13.12;50.77;102430.78;5069763;28;20038;-73
2022/10/17 09:03:44;;;;;;;7.25;5.30;;;;;;;13.10;50.52;102422.84;5085281;28;20028;-76
2022/10/17 09:06:28;;;;;;;10.65;5.82;;;;;;;13.23;51.95;102453.00;5085963;28;20059;-75
2022/10/17 09:09:12;;;;;;;17.73;5.97;;;;;;;13.31;50.65;102447.94;5068056;28;20152;-74
2022/10/17 09:12:03;;;;;;;12.68;6.00;;;;;;;13.10;50.26;102383.31;5074566;28;20087;-74
2022/10/17 09:15:04;;;;;;;9.38;5.43;;;;;;;13.55;50.34;102444.03;5067429;28;20051;-76
2022/10/17 09:17:38;;;;;;;13.80;6.75;;;;;;;13.71;50.65;102459.31;5060706;28;20037;-76
2022/10/17 09:20:32;;;;;;;10.27;5.65;;;;;;;13.73;50.36;102444.41;5047613;28;20040;-75
2022/10/17 09:23:12;;;;;;;11.98;6.30;;;;;;;13.08;50.01;102352.50;5048792;28;20047;-77
2022/10/17 09:25:44;;;;;;;12.57;6.75;;;;;;;13.52;49.72;102424.63;5052538;28;20106;-75
2022/10/17 09:28:34;;;;;;;12.18;6.82;;;;;;;13.85;49.14;102449.03;5073234;28;20029;-77
2022/10/17 09:31:17;;;;;;;11.40;6.20;;;;;;;14.07;48.64;102445.94;5072670;28;20127;-76
2022/10/17 09:33:45;;;;;;;11.57;6.32;;;;;;;14.09;48.78;102449.50;5084529;28;20048;-75
2022/10/17 09:36:19;;;;;;;13.63;6.88;;;;;;;13.78;50.19;102420.75;5054514;28;20033;-76
2022/10/17 09:38:47;;;;;;;;;;;;;;;14.04;49.93;102443.22;5054557;28;20156;-75
2022/10/17 09:41:35;;;;;;;21.33;7.28;;;;;;;13.94;48.91;102439.53;5080093;28;20043;-76
2022/10/17 09:44:33;;;;;;;26.75;7.95;;;;;;;14.04;49.65;102435.31;5068346;28;20118;-76
2022/10/17 09:47:34;;;;;;;17.35;8.40;;;;;;;14.21;49.55;102433.00;5055555;28;20052;-74
2022/10/17 09:50:00;;;;;;;14.13;7.63;;;;;;;14.45;48.41;102443.06;5066067;28;20086;-75
2022/10/17 09:52:34;;;;;;;17.23;7.63;;;;;;;14.43;48.44;102434.22;5068574;28;20056;-75
2022/10/17 09:55:16;;;;;;;16.40;9.10;;;;;;;14.55;49.15;102423.88;5049941;28;20105;-75
2022/10/17 09:57:55;;;;;;;18.57;7.47;;;;;;;14.71;45.94;102438.25;5068448;28;20040;-76
2022/10/17 10:00:27;;;;;;;12.50;6.22;;;;;;;14.12;46.21;102306.97;5068378;28;20036;-77
2022/10/17 10:03:19;;;;;;;17.15;5.63;;;;;;;14.81;46.81;102402.25;5067839;28;20063;-76
2022/10/17 10:05:58;;;;;;;15.70;4.78;;;;;;;15.08;45.10;102432.63;5069325;28;20157;-76
2022/10/17 10:08:33;;;;;;;10.65;4.82;;;;;;;14.59;46.73;102376.41;5067178;28;21239;-76
2022/10/17 10:11:03;;;;;;;14.77;4.97;;;;;;;14.76;44.54;102393.38;5063084;28;20045;-74
2022/10/17 10:13:31;;;;;;;12.93;7.38;;;;;;;14.36;43.78;102293.25;5064744;28;20052;-75
2022/10/17 10:16:28;;;;;;;9.45;5.30;;;;;;;14.60;44.09;102317.41;5031575;28;20467;-74
2022/10/17 10:18:54;;;;;;;6.10;4.13;;;;;;;15.14;42.89;102379.78;5046269;28;20156;-74
2022/10/17 10:21:25;;;;;;;11.88;4.53;;;;;;;15.12;44.29;102378.88;5085248;28;20367;-76
2022/10/17 10:24:26;;;;;;;8.18;4.53;;;;;;;15.41;44.43;102411.00;5088467;28;20079;-75
2022/10/17 10:26:54;;;;;;;17.35;6.07;;;;;;;15.31;44.55;102358.84;4998652;28;20145;-75
2022/10/17 10:29:29;;;;;;;11.05;5.25;;;;;;;15.38;45.02;102395.06;5030913;28;20064;-76
2022/10/17 10:32:05;;;;;;;10.85;6.43;;;;;;;15.35;45.80;102360.66;5042121;28;20406;-76
2022/10/17 10:34:31;;;;;;;12.52;6.65;;;;;;;15.18;45.02;102275.84;5067390;28;20037;-75
2022/10/17 10:36:57;;;;;;;19.35;4.95;;;;;;;15.92;46.35;102393.97;5049329;28;20349;-75
2022/10/17 10:39:48;;;;;;;10.70;6.40;;;;;;;15.61;43.96;102385.63;5058344;28;20033;-77
2022/10/17 10:42:33;;;;;;;12.30;5.50;;;;;;;15.62;44.31;102354.78;5045945;28;20032;-76
2022/10/17 10:45:14;;;;;;;9.88;5.45;;;;;;;16.01;44.51;102351.69;5067518;28;20101;-75
2022/10/17 10:47:59;;;;;;;15.50;5.80;;;;;;;15.88;45.42;102310.06;5051692;28;20053;-75
2022/10/17 10:50:44;;;;;;;16.73;6.15;;;;;;;15.66;43.79;102268.38;5056561;28;20067;-76
2022/10/17 10:53:44;;;;;;;18.63;5.60;;;;;;;16.27;44.04;102360.69;5067051;28;20051;-77
2022/10/17 10:56:33;;;;;;;10.65;6.25;;;;;;;16.57;43.55;102367.97;5062967;28;20515;-76
2022/10/17 10:59:07;;;;;;;15.43;6.00;;;;;;;16.44;42.99;102349.34;5062477;28;20048;-75
2022/10/17 11:02:08;;;;;;;12.10;6.45;;;;;;;16.62;42.46;102360.94;5048716;28;20071;-75
2022/10/17 11:05:11;;;;;;;16.40;5.05;;;;;;;16.40;44.07;102347.56;5067033;28;20087;-76
2022/10/17 11:07:43;;;;;;;16.45;9.93;;;;;;;15.98;43.29;102314.56;5067200;28;20050;-76
2022/10/17 11:10:24;;;;;;;12.50;6.75;;;;;;;16.15;44.51;102359.72;5070725;28;20040;-75
2022/10/17 11:13:03;;;;;;;11.40;5.32;;;;;;;16.24;42.66;102354.50;5062910;28;20131;-76
2022/10/17 11:15:41;;;;;;;9.20;5.10;;;;;;;16.61;42.61;102353.88;5049739;28;20090;-76
2022/10/17 11:18:31;;;;;;;21.70;5.50;;;;;;;16.56;43.74;102348.53;5050895;28;20032;-74
2022/10/17 11:21:18;;;;;;;12.65;5.85;;;;;;;15.62;42.79;102231.31;5045288;28;20132;-76
2022/10/17 11:23:43;;;;;;;16.27;7.32;;;;;;;14.85;42.69;102054.34;5063971;28;20044;-76
2022/10/17 11:26:27;;;;;;;18.70;6.28;;;;;;;16.57;42.97;102329.09;5065712;28;20106;-75
2022/10/17 11:29:00;;;;;;;8.07;5.57;;;;;;;16.42;42.93;102331.69;5045948;28;20037;-75
2022/10/17 11:31:33;;;;;;;9.93;5.03;;;;;;;16.00;42.60;102213.97;5051410;28;20046;-74
2022/10/17 11:34:07;;;;;;;;;;;;;;;16.97;41.71;102324.03;5067515;28;20490;-74
2022/10/17 11:36:39;;;;;;;9.48;5.85;;;;;;;16.86;42.04;102305.44;5044696;28;19908;-75
2022/10/17 11:39:39;;;;;;;14.57;6.13;;;;;;;16.75;42.03;102293.88;5057464;28;20032;-75